sensor_id;sensor_type;location;lat;lon;timestamp;P1;durP1;ratioP1;P2;durP2;ratioP2
9852;SDS011;4965;43.238;27.864;2022-08-19T00:01:23;11.68;;;8.98;;
9852;SDS011;4965;43.238;27.864;2022-08-19T00:03:50;12.23;;;8.90;;
9852;SDS011;4965;43.238;27.864;2022-08-19T00:06:17;10.73;;;8.45;;
9852;SDS011;4965;43.238;27.864;2022-08-19T00:08:44;10.93;;;8.88;;
9852;SDS011;4965;43.238;27.864;2022-08-19T00:11:12;9.95;;;8.93;;
9852;SDS011;4965;43.238;27.864;2022-08-19T00:13:39;9.05;;;8.13;;
9852;SDS011;4965;43.238;27.864;2022-08-19T00:16:06;14.55;;;8.88;;
9852;SDS011;4965;43.238;27.864;2022-08-19T00:18:33;9.70;;;8.75;;
9852;SDS011;4965;43.238;27.864;2022-08-19T00:21:00;9.43;;;8.52;;
9852;SDS011;4965;43.238;27.864;2022-08-19T00:23:28;10.25;;;9.07;;
9852;SDS011;4965;43.238;27.864;2022-08-19T00:25:55;10.38;;;9.15;;
9852;SDS011;4965;43.238;27.864;2022-08-19T00:28:23;10.77;;;8.85;;
9852;SDS011;4965;43.238;27.864;2022-08-19T00:30:50;13.25;;;9.10;;
9852;SDS011;4965;43.238;27.864;2022-08-19T00:33:18;13.10;;;8.77;;
9852;SDS011;4965;43.238;27.864;2022-08-19T00:35:45;9.55;;;8.63;;
9852;SDS011;4965;43.238;27.864;2022-08-19T00:38:12;11.70;;;9.10;;
9852;SDS011;4965;43.238;27.864;2022-08-19T00:40:39;13.00;;;8.52;;
9852;SDS011;4965;43.238;27.864;2022-08-19T00:43:08;13.13;;;9.05;;
9852;SDS011;4965;43.238;27.864;2022-08-19T00:45:37;11.25;;;9.10;;
9852;SDS011;4965;43.238;27.864;2022-08-19T00:48:06;11.85;;;9.07;;
9852;SDS011;4965;43.238;27.864;2022-08-19T00:50:34;11.23;;;9.30;;
9852;SDS011;4965;43.238;27.864;2022-08-19T00:53:01;12.18;;;8.77;;
9852;SDS011;4965;43.238;27.864;2022-08-19T00:55:30;9.38;;;8.48;;
9852;SDS011;4965;43.238;27.864;2022-08-19T00:58:00;14.23;;;8.73;;
9852;SDS011;4965;43.238;27.864;2022-08-19T01:00:30;12.38;;;9.30;;
9852;SDS011;4965;43.238;27.864;2022-08-19T01:02:59;12.23;;;9.00;;
9852;SDS011;4965;43.238;27.864;2022-08-19T01:05:26;14.73;;;8.95;;
9852;SDS011;4965;43.238;27.864;2022-08-19T01:07:55;14.43;;;9.20;;
9852;SDS011;4965;43.238;27.864;2022-08-19T01:10:25;15.27;;;10.00;;
9852;SDS011;4965;43.238;27.864;2022-08-19T01:12:55;11.88;;;9.10;;
9852;SDS011;4965;43.238;27.864;2022-08-19T01:15:26;11.88;;;9.85;;
9852;SDS011;4965;43.238;27.864;2022-08-19T01:17:59;11.52;;;8.98;;
9852;SDS011;4965;43.238;27.864;2022-08-19T01:20:27;10.45;;;8.68;;
9852;SDS011;4965;43.238;27.864;2022-08-19T01:22:56;10.88;;;8.88;;
9852;SDS011;4965;43.238;27.864;2022-08-19T01:28:13;11.75;;;9.00;;
9852;SDS011;4965;43.238;27.864;2022-08-19T01:30:43;14.02;;;9.25;;
9852;SDS011;4965;43.238;27.864;2022-08-19T01:33:11;12.55;;;9.85;;
9852;SDS011;4965;43.238;27.864;2022-08-19T01:35:38;12.15;;;8.60;;
9852;SDS011;4965;43.238;27.864;2022-08-19T01:38:08;10.00;;;8.95;;
9852;SDS011;4965;43.238;27.864;2022-08-19T01:40:37;10.60;;;9.50;;
9852;SDS011;4965;43.238;27.864;2022-08-19T01:43:07;11.85;;;9.15;;
9852;SDS011;4965;43.238;27.864;2022-08-19T01:45:34;11.23;;;9.52;;
9852;SDS011;4965;43.238;27.864;2022-08-19T01:48:03;16.38;;;9.90;;
9852;SDS011;4965;43.238;27.864;2022-08-19T01:50:30;12.95;;;9.63;;
9852;SDS011;4965;43.238;27.864;2022-08-19T01:52:59;12.10;;;9.70;;
9852;SDS011;4965;43.238;27.864;2022-08-19T01:55:30;14.90;;;9.85;;
9852;SDS011;4965;43.238;27.864;2022-08-19T01:57:58;10.98;;;9.88;;
9852;SDS011;4965;43.238;27.864;2022-08-19T02:00:28;11.15;;;9.38;;
9852;SDS011;4965;43.238;27.864;2022-08-19T02:02:56;16.20;;;9.55;;
9852;SDS011;4965;43.238;27.864;2022-08-19T02:05:23;10.88;;;9.35;;
9852;SDS011;4965;43.238;27.864;2022-08-19T02:07:50;14.30;;;8.98;;
9852;SDS011;4965;43.238;27.864;2022-08-19T02:10:18;10.23;;;9.10;;
9852;SDS011;4965;43.238;27.864;2022-08-19T02:12:49;12.43;;;9.30;;
9852;SDS011;4965;43.238;27.864;2022-08-19T02:15:16;9.65;;;8.73;;
9852;SDS011;4965;43.238;27.864;2022-08-19T02:17:44;11.63;;;9.57;;
9852;SDS011;4965;43.238;27.864;2022-08-19T02:20:11;10.98;;;9.30;;
9852;SDS011;4965;43.238;27.864;2022-08-19T02:22:38;11.60;;;9.48;;
9852;SDS011;4965;43.238;27.864;2022-08-19T02:25:06;12.85;;;8.95;;
9852;SDS011;4965;43.238;27.864;2022-08-19T02:27:34;12.50;;;9.52;;
9852;SDS011;4965;43.238;27.864;2022-08-19T02:30:04;10.30;;;8.48;;
9852;SDS011;4965;43.238;27.864;2022-08-19T02:32:32;9.57;;;8.38;;
9852;SDS011;4965;43.238;27.864;2022-08-19T02:34:59;11.13;;;9.07;;
9852;SDS011;4965;43.238;27.864;2022-08-19T02:37:26;11.15;;;8.88;;
9852;SDS011;4965;43.238;27.864;2022-08-19T02:40:11;9.35;;;8.30;;
9852;SDS011;4965;43.238;27.864;2022-08-19T02:42:38;12.57;;;8.85;;
9852;SDS011;4965;43.238;27.864;2022-08-19T02:45:08;12.50;;;8.48;;
9852;SDS011;4965;43.238;27.864;2022-08-19T02:47:35;12.48;;;9.38;;
9852;SDS011;4965;43.238;27.864;2022-08-19T02:50:03;9.52;;;8.63;;
9852;SDS011;4965;43.238;27.864;2022-08-19T02:52:31;11.48;;;9.13;;
9852;SDS011;4965;43.238;27.864;2022-08-19T02:54:59;9.45;;;8.50;;
9852;SDS011;4965;43.238;27.864;2022-08-19T02:57:26;12.48;;;9.07;;
9852;SDS011;4965;43.238;27.864;2022-08-19T02:59:53;11.88;;;9.60;;
9852;SDS011;4965;43.238;27.864;2022-08-19T03:02:22;13.80;;;9.25;;
9852;SDS011;4965;43.238;27.864;2022-08-19T03:04:49;10.13;;;9.13;;
9852;SDS011;4965;43.238;27.864;2022-08-19T03:07:16;12.23;;;9.50;;
9852;SDS011;4965;43.238;27.864;2022-08-19T03:09:44;11.40;;;8.93;;
9852;SDS011;4965;43.238;27.864;2022-08-19T03:12:11;13.90;;;9.30;;
9852;SDS011;4965;43.238;27.864;2022-08-19T03:14:38;12.82;;;8.90;;
9852;SDS011;4965;43.238;27.864;2022-08-19T03:17:05;10.73;;;9.57;;
9852;SDS011;4965;43.238;27.864;2022-08-19T03:19:34;13.20;;;9.30;;
9852;SDS011;4965;43.238;27.864;2022-08-19T03:22:01;10.48;;;8.93;;
9852;SDS011;4965;43.238;27.864;2022-08-19T03:24:29;9.75;;;8.70;;
9852;SDS011;4965;43.238;27.864;2022-08-19T03:26:57;13.10;;;9.00;;
9852;SDS011;4965;43.238;27.864;2022-08-19T03:29:25;13.25;;;8.70;;
9852;SDS011;4965;43.238;27.864;2022-08-19T03:31:53;10.45;;;9.13;;
9852;SDS011;4965;43.238;27.864;2022-08-19T03:34:21;10.57;;;9.57;;
9852;SDS011;4965;43.238;27.864;2022-08-19T03:36:53;10.27;;;8.70;;
9852;SDS011;4965;43.238;27.864;2022-08-19T03:39:21;9.93;;;8.93;;
9852;SDS011;4965;43.238;27.864;2022-08-19T03:41:49;10.65;;;9.13;;
9852;SDS011;4965;43.238;27.864;2022-08-19T03:44:19;12.57;;;9.25;;
9852;SDS011;4965;43.238;27.864;2022-08-19T03:46:48;16.33;;;9.55;;
9852;SDS011;4965;43.238;27.864;2022-08-19T03:49:18;12.85;;;9.55;;
9852;SDS011;4965;43.238;27.864;2022-08-19T03:51:47;10.75;;;8.45;;
9852;SDS011;4965;43.238;27.864;2022-08-19T03:54:17;10.63;;;9.02;;
9852;SDS011;4965;43.238;27.864;2022-08-19T03:56:48;12.43;;;9.10;;
9852;SDS011;4965;43.238;27.864;2022-08-19T03:59:17;16.50;;;9.18;;
9852;SDS011;4965;43.238;27.864;2022-08-19T04:01:47;15.90;;;10.13;;
9852;SDS011;4965;43.238;27.864;2022-08-19T04:04:14;10.75;;;7.78;;
9852;SDS011;4965;43.238;27.864;2022-08-19T04:06:41;10.93;;;8.13;;
9852;SDS011;4965;43.238;27.864;2022-08-19T04:09:12;7.82;;;6.90;;
9852;SDS011;4965;43.238;27.864;2022-08-19T04:11:42;8.90;;;7.43;;
9852;SDS011;4965;43.238;27.864;2022-08-19T04:14:11;10.48;;;7.70;;
9852;SDS011;4965;43.238;27.864;2022-08-19T04:16:39;7.65;;;6.90;;
9852;SDS011;4965;43.238;27.864;2022-08-19T04:19:06;9.30;;;7.50;;
9852;SDS011;4965;43.238;27.864;2022-08-19T04:21:33;10.35;;;7.00;;
9852;SDS011;4965;43.238;27.864;2022-08-19T04:24:00;10.55;;;7.15;;
9852;SDS011;4965;43.238;27.864;2022-08-19T04:26:29;9.20;;;7.25;;
9852;SDS011;4965;43.238;27.864;2022-08-19T04:28:59;10.25;;;7.15;;
9852;SDS011;4965;43.238;27.864;2022-08-19T04:31:28;9.73;;;7.38;;
9852;SDS011;4965;43.238;27.864;2022-08-19T04:33:57;9.95;;;6.82;;
9852;SDS011;4965;43.238;27.864;2022-08-19T04:36:27;8.23;;;7.47;;
9852;SDS011;4965;43.238;27.864;2022-08-19T04:38:56;8.93;;;8.02;;
9852;SDS011;4965;43.238;27.864;2022-08-19T04:41:24;18.38;;;6.72;;
9852;SDS011;4965;43.238;27.864;2022-08-19T04:44:10;8.50;;;6.78;;
9852;SDS011;4965;43.238;27.864;2022-08-19T04:46:38;11.43;;;6.55;;
9852;SDS011;4965;43.238;27.864;2022-08-19T04:49:06;10.63;;;7.00;;
9852;SDS011;4965;43.238;27.864;2022-08-19T04:51:33;9.90;;;7.18;;
9852;SDS011;4965;43.238;27.864;2022-08-19T04:54:02;11.50;;;7.25;;
9852;SDS011;4965;43.238;27.864;2022-08-19T04:56:30;10.75;;;6.45;;
9852;SDS011;4965;43.238;27.864;2022-08-19T04:58:57;12.05;;;6.85;;
9852;SDS011;4965;43.238;27.864;2022-08-19T05:01:30;8.75;;;6.57;;
9852;SDS011;4965;43.238;27.864;2022-08-19T05:03:58;17.40;;;6.68;;
9852;SDS011;4965;43.238;27.864;2022-08-19T05:06:28;10.30;;;6.78;;
9852;SDS011;4965;43.238;27.864;2022-08-19T05:08:59;8.93;;;6.65;;
9852;SDS011;4965;43.238;27.864;2022-08-19T05:11:27;11.25;;;7.03;;
9852;SDS011;4965;43.238;27.864;2022-08-19T05:13:56;9.18;;;6.78;;
9852;SDS011;4965;43.238;27.864;2022-08-19T05:16:24;7.75;;;6.55;;
9852;SDS011;4965;43.238;27.864;2022-08-19T05:18:54;8.80;;;6.82;;
9852;SDS011;4965;43.238;27.864;2022-08-19T05:21:39;9.20;;;6.80;;
9852;SDS011;4965;43.238;27.864;2022-08-19T05:24:24;11.05;;;7.13;;
9852;SDS011;4965;43.238;27.864;2022-08-19T05:26:52;13.90;;;7.22;;
9852;SDS011;4965;43.238;27.864;2022-08-19T05:29:23;14.52;;;8.02;;
9852;SDS011;4965;43.238;27.864;2022-08-19T05:31:52;10.95;;;7.40;;
9852;SDS011;4965;43.238;27.864;2022-08-19T05:34:22;10.90;;;6.82;;
9852;SDS011;4965;43.238;27.864;2022-08-19T05:36:51;9.70;;;6.65;;
9852;SDS011;4965;43.238;27.864;2022-08-19T05:39:21;8.40;;;7.18;;
9852;SDS011;4965;43.238;27.864;2022-08-19T05:41:50;7.60;;;6.85;;
9852;SDS011;4965;43.238;27.864;2022-08-19T05:44:19;14.57;;;7.45;;
9852;SDS011;4965;43.238;27.864;2022-08-19T05:46:47;7.07;;;6.38;;
9852;SDS011;4965;43.238;27.864;2022-08-19T05:49:14;11.63;;;6.90;;
9852;SDS011;4965;43.238;27.864;2022-08-19T05:51:44;10.90;;;6.93;;
9852;SDS011;4965;43.238;27.864;2022-08-19T05:54:10;8.02;;;7.22;;
9852;SDS011;4965;43.238;27.864;2022-08-19T05:56:39;12.13;;;7.13;;
9852;SDS011;4965;43.238;27.864;2022-08-19T05:59:07;10.98;;;7.15;;
9852;SDS011;4965;43.238;27.864;2022-08-19T06:01:36;11.73;;;7.97;;
9852;SDS011;4965;43.238;27.864;2022-08-19T06:04:05;11.35;;;6.72;;
9852;SDS011;4965;43.238;27.864;2022-08-19T06:06:33;16.85;;;8.20;;
9852;SDS011;4965;43.238;27.864;2022-08-19T06:09:02;11.40;;;7.22;;
9852;SDS011;4965;43.238;27.864;2022-08-19T06:11:34;8.10;;;7.35;;
9852;SDS011;4965;43.238;27.864;2022-08-19T06:14:03;16.08;;;7.97;;
9852;SDS011;4965;43.238;27.864;2022-08-19T06:16:33;8.38;;;7.07;;
9852;SDS011;4965;43.238;27.864;2022-08-19T06:19:04;8.35;;;7.50;;
9852;SDS011;4965;43.238;27.864;2022-08-19T06:21:34;12.18;;;8.05;;
9852;SDS011;4965;43.238;27.864;2022-08-19T06:24:05;11.07;;;7.57;;
9852;SDS011;4965;43.238;27.864;2022-08-19T06:26:34;10.60;;;7.22;;
9852;SDS011;4965;43.238;27.864;2022-08-19T06:29:02;7.72;;;6.72;;
9852;SDS011;4965;43.238;27.864;2022-08-19T06:31:31;12.82;;;7.00;;
9852;SDS011;4965;43.238;27.864;2022-08-19T06:33:59;12.02;;;7.18;;
9852;SDS011;4965;43.238;27.864;2022-08-19T06:36:31;9.50;;;7.18;;
9852;SDS011;4965;43.238;27.864;2022-08-19T06:38:59;11.43;;;7.60;;
9852;SDS011;4965;43.238;27.864;2022-08-19T06:41:28;12.73;;;7.20;;
9852;SDS011;4965;43.238;27.864;2022-08-19T06:43:56;8.15;;;6.82;;
9852;SDS011;4965;43.238;27.864;2022-08-19T06:46:23;12.32;;;6.68;;
9852;SDS011;4965;43.238;27.864;2022-08-19T06:48:51;12.45;;;7.65;;
9852;SDS011;4965;43.238;27.864;2022-08-19T06:51:19;8.63;;;6.88;;
9852;SDS011;4965;43.238;27.864;2022-08-19T06:53:49;11.02;;;6.60;;
9852;SDS011;4965;43.238;27.864;2022-08-19T06:56:18;10.25;;;7.47;;
9852;SDS011;4965;43.238;27.864;2022-08-19T06:58:47;12.20;;;6.78;;
9852;SDS011;4965;43.238;27.864;2022-08-19T07:01:18;14.18;;;7.10;;
9852;SDS011;4965;43.238;27.864;2022-08-19T07:03:46;7.65;;;6.60;;
9852;SDS011;4965;43.238;27.864;2022-08-19T07:06:13;9.90;;;6.78;;
9852;SDS011;4965;43.238;27.864;2022-08-19T07:08:43;7.82;;;6.55;;
9852;SDS011;4965;43.238;27.864;2022-08-19T07:11:12;10.73;;;7.03;;
9852;SDS011;4965;43.238;27.864;2022-08-19T07:13:43;11.60;;;6.75;;
9852;SDS011;4965;43.238;27.864;2022-08-19T07:16:14;9.95;;;6.50;;
9852;SDS011;4965;43.238;27.864;2022-08-19T07:18:44;8.23;;;7.28;;
9852;SDS011;4965;43.238;27.864;2022-08-19T07:21:12;18.48;;;9.63;;
9852;SDS011;4965;43.238;27.864;2022-08-19T07:23:41;9.00;;;6.50;;
9852;SDS011;4965;43.238;27.864;2022-08-19T07:26:13;11.60;;;6.72;;
9852;SDS011;4965;43.238;27.864;2022-08-19T07:28:44;14.98;;;7.38;;
9852;SDS011;4965;43.238;27.864;2022-08-19T07:31:12;9.38;;;6.65;;
9852;SDS011;4965;43.238;27.864;2022-08-19T07:33:42;10.88;;;6.95;;
9852;SDS011;4965;43.238;27.864;2022-08-19T07:36:10;8.32;;;6.47;;
9852;SDS011;4965;43.238;27.864;2022-08-19T07:38:39;8.65;;;6.25;;
9852;SDS011;4965;43.238;27.864;2022-08-19T07:41:09;11.38;;;6.38;;
9852;SDS011;4965;43.238;27.864;2022-08-19T07:43:37;12.45;;;6.20;;
9852;SDS011;4965;43.238;27.864;2022-08-19T07:46:05;12.55;;;6.10;;
9852;SDS011;4965;43.238;27.864;2022-08-19T07:48:34;9.00;;;6.35;;
9852;SDS011;4965;43.238;27.864;2022-08-19T07:51:02;10.68;;;6.18;;
9852;SDS011;4965;43.238;27.864;2022-08-19T07:53:32;12.07;;;6.95;;
9852;SDS011;4965;43.238;27.864;2022-08-19T07:56:00;9.90;;;6.60;;
9852;SDS011;4965;43.238;27.864;2022-08-19T07:58:29;7.07;;;6.25;;
9852;SDS011;4965;43.238;27.864;2022-08-19T08:00:58;13.70;;;6.75;;
9852;SDS011;4965;43.238;27.864;2022-08-19T08:03:26;11.88;;;6.68;;
9852;SDS011;4965;43.238;27.864;2022-08-19T08:06:09;9.75;;;6.03;;
9852;SDS011;4965;43.238;27.864;2022-08-19T08:08:53;10.75;;;6.25;;
9852;SDS011;4965;43.238;27.864;2022-08-19T08:11:43;7.72;;;5.88;;
9852;SDS011;4965;43.238;27.864;2022-08-19T08:14:14;9.75;;;5.82;;
9852;SDS011;4965;43.238;27.864;2022-08-19T08:16:42;9.27;;;5.95;;
9852;SDS011;4965;43.238;27.864;2022-08-19T08:19:10;8.13;;;5.80;;
9852;SDS011;4965;43.238;27.864;2022-08-19T08:21:41;11.45;;;5.50;;
9852;SDS011;4965;43.238;27.864;2022-08-19T08:24:09;9.82;;;5.90;;
9852;SDS011;4965;43.238;27.864;2022-08-19T08:26:37;12.95;;;6.15;;
9852;SDS011;4965;43.238;27.864;2022-08-19T08:29:04;10.18;;;5.85;;
9852;SDS011;4965;43.238;27.864;2022-08-19T08:31:33;13.05;;;6.30;;
9852;SDS011;4965;43.238;27.864;2022-08-19T08:34:00;11.57;;;6.68;;
9852;SDS011;4965;43.238;27.864;2022-08-19T08:36:27;8.43;;;5.60;;
9852;SDS011;4965;43.238;27.864;2022-08-19T08:38:55;8.23;;;5.85;;
9852;SDS011;4965;43.238;27.864;2022-08-19T08:41:24;13.50;;;5.82;;
9852;SDS011;4965;43.238;27.864;2022-08-19T08:43:59;11.75;;;6.22;;
9852;SDS011;4965;43.238;27.864;2022-08-19T08:46:29;10.15;;;5.90;;
9852;SDS011;4965;43.238;27.864;2022-08-19T08:49:04;12.80;;;6.25;;
9852;SDS011;4965;43.238;27.864;2022-08-19T08:51:39;10.05;;;5.90;;
9852;SDS011;4965;43.238;27.864;2022-08-19T08:54:12;12.70;;;5.97;;
9852;SDS011;4965;43.238;27.864;2022-08-19T08:56:44;10.10;;;6.00;;
9852;SDS011;4965;43.238;27.864;2022-08-19T08:59:16;12.90;;;5.43;;
9852;SDS011;4965;43.238;27.864;2022-08-19T09:01:48;7.63;;;6.10;;
9852;SDS011;4965;43.238;27.864;2022-08-19T09:04:15;13.75;;;5.90;;
9852;SDS011;4965;43.238;27.864;2022-08-19T09:06:44;7.78;;;5.95;;
9852;SDS011;4965;43.238;27.864;2022-08-19T09:09:20;25.10;;;6.13;;
9852;SDS011;4965;43.238;27.864;2022-08-19T09:11:59;7.68;;;5.63;;
9852;SDS011;4965;43.238;27.864;2022-08-19T09:14:34;18.23;;;6.25;;
9852;SDS011;4965;43.238;27.864;2022-08-19T09:17:06;17.33;;;6.60;;
9852;SDS011;4965;43.238;27.864;2022-08-19T09:19:34;12.35;;;5.95;;
9852;SDS011;4965;43.238;27.864;2022-08-19T09:22:02;12.82;;;5.65;;
9852;SDS011;4965;43.238;27.864;2022-08-19T09:24:32;10.45;;;5.90;;
9852;SDS011;4965;43.238;27.864;2022-08-19T09:27:00;12.20;;;5.55;;
9852;SDS011;4965;43.238;27.864;2022-08-19T09:29:28;12.32;;;5.93;;
9852;SDS011;4965;43.238;27.864;2022-08-19T09:31:55;18.65;;;5.47;;
9852;SDS011;4965;43.238;27.864;2022-08-19T09:34:22;6.75;;;5.40;;
9852;SDS011;4965;43.238;27.864;2022-08-19T09:36:49;13.38;;;5.85;;
9852;SDS011;4965;43.238;27.864;2022-08-19T09:39:18;7.20;;;5.43;;
9852;SDS011;4965;43.238;27.864;2022-08-19T09:41:47;13.00;;;5.53;;
9852;SDS011;4965;43.238;27.864;2022-08-19T09:44:14;9.15;;;5.80;;
9852;SDS011;4965;43.238;27.864;2022-08-19T09:46:41;11.13;;;5.80;;
9852;SDS011;4965;43.238;27.864;2022-08-19T09:49:08;7.85;;;5.22;;
9852;SDS011;4965;43.238;27.864;2022-08-19T09:51:35;8.13;;;5.25;;
9852;SDS011;4965;43.238;27.864;2022-08-19T09:54:03;10.85;;;5.38;;
9852;SDS011;4965;43.238;27.864;2022-08-19T09:56:30;11.75;;;5.15;;
9852;SDS011;4965;43.238;27.864;2022-08-19T09:59:00;9.18;;;5.30;;
9852;SDS011;4965;43.238;27.864;2022-08-19T10:01:30;19.15;;;6.32;;
9852;SDS011;4965;43.238;27.864;2022-08-19T10:03:58;10.50;;;6.03;;
9852;SDS011;4965;43.238;27.864;2022-08-19T10:06:27;13.15;;;6.13;;
9852;SDS011;4965;43.238;27.864;2022-08-19T10:08:57;11.10;;;5.90;;
9852;SDS011;4965;43.238;27.864;2022-08-19T10:11:25;13.55;;;5.75;;
9852;SDS011;4965;43.238;27.864;2022-08-19T10:13:53;8.90;;;5.72;;
9852;SDS011;4965;43.238;27.864;2022-08-19T10:16:22;10.25;;;5.53;;
9852;SDS011;4965;43.238;27.864;2022-08-19T10:18:50;10.15;;;5.50;;
9852;SDS011;4965;43.238;27.864;2022-08-19T10:21:19;6.75;;;5.40;;
9852;SDS011;4965;43.238;27.864;2022-08-19T10:23:49;16.00;;;6.20;;
9852;SDS011;4965;43.238;27.864;2022-08-19T10:26:18;15.88;;;6.18;;
9852;SDS011;4965;43.238;27.864;2022-08-19T10:28:47;13.60;;;5.80;;
9852;SDS011;4965;43.238;27.864;2022-08-19T10:31:15;15.32;;;6.40;;
9852;SDS011;4965;43.238;27.864;2022-08-19T10:33:46;10.13;;;5.97;;
9852;SDS011;4965;43.238;27.864;2022-08-19T10:36:14;12.32;;;5.70;;
9852;SDS011;4965;43.238;27.864;2022-08-19T10:38:43;12.98;;;5.50;;
9852;SDS011;4965;43.238;27.864;2022-08-19T10:41:12;8.43;;;5.32;;
9852;SDS011;4965;43.238;27.864;2022-08-19T10:43:40;12.30;;;6.03;;
9852;SDS011;4965;43.238;27.864;2022-08-19T10:46:08;18.45;;;5.70;;
9852;SDS011;4965;43.238;27.864;2022-08-19T10:48:37;6.63;;;5.13;;
9852;SDS011;4965;43.238;27.864;2022-08-19T10:51:07;7.60;;;5.82;;
9852;SDS011;4965;43.238;27.864;2022-08-19T10:53:52;12.07;;;5.68;;
9852;SDS011;4965;43.238;27.864;2022-08-19T10:56:20;15.25;;;5.88;;
9852;SDS011;4965;43.238;27.864;2022-08-19T10:59:20;11.57;;;5.78;;
9852;SDS011;4965;43.238;27.864;2022-08-19T11:01:49;11.88;;;5.47;;
9852;SDS011;4965;43.238;27.864;2022-08-19T11:04:17;9.70;;;5.00;;
9852;SDS011;4965;43.238;27.864;2022-08-19T11:06:47;9.93;;;5.72;;
9852;SDS011;4965;43.238;27.864;2022-08-19T11:09:19;12.48;;;5.57;;
9852;SDS011;4965;43.238;27.864;2022-08-19T11:11:49;8.45;;;5.38;;
9852;SDS011;4965;43.238;27.864;2022-08-19T11:14:19;13.45;;;5.32;;
9852;SDS011;4965;43.238;27.864;2022-08-19T11:16:50;13.50;;;5.00;;
9852;SDS011;4965;43.238;27.864;2022-08-19T11:19:21;11.73;;;5.13;;
9852;SDS011;4965;43.238;27.864;2022-08-19T11:21:51;18.88;;;5.38;;
9852;SDS011;4965;43.238;27.864;2022-08-19T11:24:21;14.02;;;5.72;;
9852;SDS011;4965;43.238;27.864;2022-08-19T11:26:51;8.50;;;4.97;;
9852;SDS011;4965;43.238;27.864;2022-08-19T11:29:22;6.88;;;4.93;;
9852;SDS011;4965;43.238;27.864;2022-08-19T11:31:52;7.18;;;5.10;;
9852;SDS011;4965;43.238;27.864;2022-08-19T11:34:23;11.45;;;4.93;;
9852;SDS011;4965;43.238;27.864;2022-08-19T11:36:55;9.73;;;4.88;;
9852;SDS011;4965;43.238;27.864;2022-08-19T11:39:25;14.80;;;7.00;;
9852;SDS011;4965;43.238;27.864;2022-08-19T11:41:53;13.48;;;7.40;;
9852;SDS011;4965;43.238;27.864;2022-08-19T11:44:19;11.82;;;7.60;;
9852;SDS011;4965;43.238;27.864;2022-08-19T11:46:47;10.18;;;7.72;;
9852;SDS011;4965;43.238;27.864;2022-08-19T11:49:14;11.50;;;7.40;;
9852;SDS011;4965;43.238;27.864;2022-08-19T11:51:43;17.77;;;8.10;;
9852;SDS011;4965;43.238;27.864;2022-08-19T11:54:13;13.05;;;8.10;;
9852;SDS011;4965;43.238;27.864;2022-08-19T11:56:42;10.23;;;8.25;;
9852;SDS011;4965;43.238;27.864;2022-08-19T11:59:11;16.20;;;8.73;;
9852;SDS011;4965;43.238;27.864;2022-08-19T12:01:38;15.60;;;8.30;;
9852;SDS011;4965;43.238;27.864;2022-08-19T12:04:07;12.85;;;8.27;;
9852;SDS011;4965;43.238;27.864;2022-08-19T12:06:37;16.55;;;7.70;;
9852;SDS011;4965;43.238;27.864;2022-08-19T12:09:07;12.27;;;7.95;;
9852;SDS011;4965;43.238;27.864;2022-08-19T12:11:38;13.23;;;8.82;;
9852;SDS011;4965;43.238;27.864;2022-08-19T12:14:05;13.50;;;7.72;;
9852;SDS011;4965;43.238;27.864;2022-08-19T12:16:35;15.88;;;8.63;;
9852;SDS011;4965;43.238;27.864;2022-08-19T12:19:03;14.52;;;8.45;;
9852;SDS011;4965;43.238;27.864;2022-08-19T12:21:31;14.52;;;8.40;;
9852;SDS011;4965;43.238;27.864;2022-08-19T12:24:00;12.05;;;8.23;;
9852;SDS011;4965;43.238;27.864;2022-08-19T12:26:29;10.68;;;8.57;;
9852;SDS011;4965;43.238;27.864;2022-08-19T12:28:59;10.65;;;8.05;;
9852;SDS011;4965;43.238;27.864;2022-08-19T12:31:26;16.52;;;8.18;;
9852;SDS011;4965;43.238;27.864;2022-08-19T12:33:55;18.25;;;7.97;;
9852;SDS011;4965;43.238;27.864;2022-08-19T12:36:23;15.48;;;8.38;;
9852;SDS011;4965;43.238;27.864;2022-08-19T12:38:50;11.43;;;7.93;;
9852;SDS011;4965;43.238;27.864;2022-08-19T12:41:19;15.90;;;9.10;;
9852;SDS011;4965;43.238;27.864;2022-08-19T12:43:47;13.85;;;8.50;;
9852;SDS011;4965;43.238;27.864;2022-08-19T12:46:16;11.15;;;7.95;;
9852;SDS011;4965;43.238;27.864;2022-08-19T12:48:43;12.25;;;7.97;;
9852;SDS011;4965;43.238;27.864;2022-08-19T12:51:11;14.90;;;8.15;;
9852;SDS011;4965;43.238;27.864;2022-08-19T12:53:41;9.40;;;7.90;;
9852;SDS011;4965;43.238;27.864;2022-08-19T12:56:09;16.13;;;8.35;;
9852;SDS011;4965;43.238;27.864;2022-08-19T12:58:39;14.68;;;7.72;;
9852;SDS011;4965;43.238;27.864;2022-08-19T13:01:07;22.92;;;7.90;;
9852;SDS011;4965;43.238;27.864;2022-08-19T13:03:38;11.60;;;7.88;;
9852;SDS011;4965;43.238;27.864;2022-08-19T13:06:05;18.05;;;8.25;;
9852;SDS011;4965;43.238;27.864;2022-08-19T13:08:33;14.45;;;8.18;;
9852;SDS011;4965;43.238;27.864;2022-08-19T13:11:06;14.10;;;7.50;;
9852;SDS011;4965;43.238;27.864;2022-08-19T13:13:37;16.50;;;7.75;;
9852;SDS011;4965;43.238;27.864;2022-08-19T13:16:07;10.82;;;7.60;;
9852;SDS011;4965;43.238;27.864;2022-08-19T13:18:35;11.93;;;8.02;;
9852;SDS011;4965;43.238;27.864;2022-08-19T13:21:05;14.10;;;7.47;;
9852;SDS011;4965;43.238;27.864;2022-08-19T13:23:33;11.98;;;8.43;;
9852;SDS011;4965;43.238;27.864;2022-08-19T13:26:02;10.02;;;7.13;;
9852;SDS011;4965;43.238;27.864;2022-08-19T13:28:31;16.48;;;8.43;;
9852;SDS011;4965;43.238;27.864;2022-08-19T13:31:14;21.42;;;8.18;;
9852;SDS011;4965;43.238;27.864;2022-08-19T13:34:00;11.38;;;6.97;;
9852;SDS011;4965;43.238;27.864;2022-08-19T13:36:27;9.75;;;6.80;;
9852;SDS011;4965;43.238;27.864;2022-08-19T13:38:54;16.08;;;7.68;;
9852;SDS011;4965;43.238;27.864;2022-08-19T13:41:21;14.35;;;7.15;;
9852;SDS011;4965;43.238;27.864;2022-08-19T13:43:48;12.43;;;7.50;;
9852;SDS011;4965;43.238;27.864;2022-08-19T13:46:15;16.67;;;7.30;;
9852;SDS011;4965;43.238;27.864;2022-08-19T13:48:42;13.63;;;7.80;;
9852;SDS011;4965;43.238;27.864;2022-08-19T13:51:11;13.77;;;7.80;;
9852;SDS011;4965;43.238;27.864;2022-08-19T13:53:38;11.85;;;7.57;;
9852;SDS011;4965;43.238;27.864;2022-08-19T13:56:07;17.10;;;7.80;;
9852;SDS011;4965;43.238;27.864;2022-08-19T13:58:34;12.80;;;7.70;;
9852;SDS011;4965;43.238;27.864;2022-08-19T14:01:01;11.57;;;7.35;;
9852;SDS011;4965;43.238;27.864;2022-08-19T14:03:28;18.90;;;7.60;;
9852;SDS011;4965;43.238;27.864;2022-08-19T14:05:55;11.07;;;7.22;;
9852;SDS011;4965;43.238;27.864;2022-08-19T14:08:24;17.73;;;7.20;;
9852;SDS011;4965;43.238;27.864;2022-08-19T14:10:52;14.48;;;6.50;;
9852;SDS011;4965;43.238;27.864;2022-08-19T14:13:20;16.25;;;6.95;;
9852;SDS011;4965;43.238;27.864;2022-08-19T14:15:49;10.27;;;7.45;;
9852;SDS011;4965;43.238;27.864;2022-08-19T14:18:17;8.77;;;7.53;;
9852;SDS011;4965;43.238;27.864;2022-08-19T14:20:44;14.32;;;7.05;;
9852;SDS011;4965;43.238;27.864;2022-08-19T14:23:12;13.18;;;8.00;;
9852;SDS011;4965;43.238;27.864;2022-08-19T14:25:40;17.13;;;6.70;;
9852;SDS011;4965;43.238;27.864;2022-08-19T14:28:07;14.98;;;6.68;;
9852;SDS011;4965;43.238;27.864;2022-08-19T14:30:35;12.93;;;6.88;;
9852;SDS011;4965;43.238;27.864;2022-08-19T14:33:03;18.58;;;7.82;;
9852;SDS011;4965;43.238;27.864;2022-08-19T14:35:32;14.80;;;7.18;;
9852;SDS011;4965;43.238;27.864;2022-08-19T14:38:00;12.43;;;6.80;;
9852;SDS011;4965;43.238;27.864;2022-08-19T14:40:28;11.57;;;6.85;;
9852;SDS011;4965;43.238;27.864;2022-08-19T14:42:58;14.75;;;7.90;;
9852;SDS011;4965;43.238;27.864;2022-08-19T14:45:29;16.77;;;7.50;;
9852;SDS011;4965;43.238;27.864;2022-08-19T14:47:57;8.40;;;7.50;;
9852;SDS011;4965;43.238;27.864;2022-08-19T14:50:25;14.05;;;7.22;;
9852;SDS011;4965;43.238;27.864;2022-08-19T14:52:57;9.95;;;6.97;;
9852;SDS011;4965;43.238;27.864;2022-08-19T14:55:25;14.07;;;7.00;;
9852;SDS011;4965;43.238;27.864;2022-08-19T14:57:52;13.52;;;7.68;;
9852;SDS011;4965;43.238;27.864;2022-08-19T15:00:21;9.48;;;7.03;;
9852;SDS011;4965;43.238;27.864;2022-08-19T15:02:49;14.18;;;6.47;;
9852;SDS011;4965;43.238;27.864;2022-08-19T15:05:16;9.80;;;7.00;;